Time;durP1;ratioP1;P1;durP2;ratioP2;P2;SDS_P1;SDS_P2;PMS_P1;PMS_P2;Temp;Humidity;BMP_temperature;BMP_pressure;BME280_temperature;BME280_humidity;BME280_pressure;Samples;Min_cycle;Max_cycle;Signal;HPM_P1;HPM_P2
2023/01/07 00:01:38;;;;;;;98.60;46.88;;;8.20;99.90;;;;;;6252567;22;20003;-90
2023/01/07 00:04:06;;;;;;;87.90;43.95;;;8.20;99.90;;;;;;6277914;22;20007;-90
2023/01/07 00:06:35;;;;;;;95.22;45.83;;;8.20;99.90;;;;;;6252124;22;20019;-90
2023/01/07 00:09:04;;;;;;;92.25;46.60;;;8.20;99.90;;;;;;6252416;22;20129;-88
2023/01/07 00:11:36;;;;;;;113.13;52.08;;;8.20;99.90;;;;;;6252893;22;20034;-89
2023/01/07 00:14:06;;;;;;;108.95;53.28;;;8.20;99.90;;;;;;6252530;22;20026;-88
2023/01/07 00:16:33;;;;;;;133.82;63.70;;;8.20;99.90;;;;;;6251859;22;20031;-89
2023/01/07 00:19:02;;;;;;;136.35;68.75;;;8.10;99.90;;;;;;6252438;22;20003;-90
2023/01/07 00:21:29;;;;;;;137.15;69.85;;;8.10;99.90;;;;;;6252170;22;20007;-89
2023/01/07 00:24:01;;;;;;;132.73;65.72;;;8.20;99.90;;;;;;6252397;22;20014;-90
2023/01/07 00:26:34;;;;;;;146.68;74.93;;;8.10;99.90;;;;;;6276681;22;20015;-88
2023/01/07 00:29:05;;;;;;;120.00;60.72;;;8.10;99.90;;;;;;6277933;22;20014;-89
2023/01/07 00:31:37;;;;;;;112.80;56.78;;;8.10;99.90;;;;;;6252281;22;20095;-93
2023/01/07 00:34:31;;;;;;;112.32;54.92;;;8.10;99.90;;;;;;6282636;22;20105;-89
2023/01/07 00:40:11;;;;;;;86.22;44.42;;;8.00;99.90;;;;;;6280393;22;20027;-93
2023/01/07 00:42:53;;;;;;;79.53;40.95;;;8.00;99.90;;;;;;6279881;22;20004;-91
2023/01/07 00:45:22;;;;;;;78.50;39.58;;;7.90;99.90;;;;;;6252876;22;20031;-92
2023/01/07 00:47:52;;;;;;;73.00;37.47;;;7.90;99.90;;;;;;6278600;22;20011;-92
2023/01/07 00:50:26;;;;;;;68.65;34.95;;;8.00;99.90;;;;;;6277985;22;20030;-92
2023/01/07 00:52:53;;;;;;;67.75;34.47;;;8.10;99.90;;;;;;6278851;22;20015;-91
2023/01/07 00:55:21;;;;;;;67.53;35.03;;;8.10;99.90;;;;;;6252528;22;20004;-92
2023/01/07 00:57:48;;;;;;;66.45;34.33;;;8.20;99.90;;;;;;6278944;22;20018;-92
2023/01/07 01:00:17;;;;;;;72.63;36.00;;;8.30;99.90;;;;;;6254088;22;20003;-90
2023/01/07 01:02:45;;;;;;;70.88;32.10;;;8.40;99.90;;;;;;6281608;22;20030;-92
2023/01/07 01:05:12;;;;;;;72.10;34.90;;;8.50;99.90;;;;;;6271251;22;20052;-90
2023/01/07 01:07:39;;;;;;;74.70;35.50;;;8.50;99.90;;;;;;6302141;22;20031;-93
2023/01/07 01:10:09;;;;;;;69.03;32.83;;;8.60;99.90;;;;;;6265754;22;20004;-91
2023/01/07 01:12:37;;;;;;;71.90;34.58;;;8.80;99.90;;;;;;6279433;22;20012;-91
2023/01/07 01:15:07;;;;;;;66.28;32.58;;;8.90;99.90;;;;;;6252156;22;20020;-91
2023/01/07 01:17:37;;;;;;;63.58;31.95;;;8.90;99.90;;;;;;6252894;22;20345;-93
2023/01/07 01:20:06;;;;;;;72.80;33.20;;;8.90;99.90;;;;;;6278141;22;20012;-91
2023/01/07 01:22:39;;;;;;;58.20;31.17;;;8.80;99.90;;;;;;6253034;22;20057;-93
2023/01/07 01:25:10;;;;;;;72.28;33.42;;;8.90;99.90;;;;;;6278334;22;20437;-93
2023/01/07 01:27:37;;;;;;;69.38;32.38;;;8.90;99.90;;;;;;6252840;22;20031;-91
2023/01/07 01:30:05;;;;;;;65.95;31.08;;;8.80;99.90;;;;;;6253356;22;20000;-92
2023/01/07 01:32:37;;;;;;;66.97;32.53;;;8.80;99.90;;;;;;6252682;22;20004;-91
2023/01/07 01:35:05;;;;;;;69.18;31.83;;;8.90;99.90;;;;;;6255054;22;20444;-91
2023/01/07 01:37:31;;;;;;;74.65;34.00;;;8.90;99.90;;;;;;6250546;22;20011;-91
2023/01/07 01:40:02;;;;;;;70.60;33.38;;;8.90;99.90;;;;;;6278302;22;20012;-92
2023/01/07 01:42:30;;;;;;;68.43;31.65;;;8.90;99.90;;;;;;6277283;22;20015;-91
2023/01/07 01:45:01;;;;;;;74.07;34.42;;;8.90;99.90;;;;;;6252507;22;20082;-92
2023/01/07 01:47:44;;;;;;;72.68;32.42;;;8.90;99.90;;;;;;6253773;22;20054;-93
2023/01/07 01:50:40;;;;;;;60.78;29.42;;;8.80;99.90;;;;;;6253081;22;20034;-93
2023/01/07 01:53:13;;;;;;;63.72;31.60;;;8.80;99.90;;;;;;6253242;22;20012;-93
2023/01/07 01:55:57;;;;;;;74.80;33.92;;;8.80;99.90;;;;;;6308212;22;20003;-93
2023/01/07 01:58:36;;;;;;;77.72;34.70;;;8.70;99.90;;;;;;6256304;22;20065;-91
2023/01/07 02:01:04;;;;;;;67.38;32.17;;;8.50;99.90;;;;;;6256809;22;20003;-92
2023/01/07 02:03:34;;;;;;;92.88;38.45;;;8.40;99.90;;;;;;6256744;22;20003;-91
2023/01/07 02:06:02;;;;;;;119.90;50.05;;;8.30;99.90;;;;;;6254896;22;20465;-93
2023/01/07 02:08:29;;;;;;;126.07;55.92;;;8.10;99.90;;;;;;6220854;23;20011;-93
2023/01/07 02:11:08;;;;;;;95.50;43.28;;;8.10;99.90;;;;;;6221207;23;20004;-90
2023/01/07 02:14:19;;;;;;;93.72;43.75;;;8.00;99.90;;;;;;6221611;23;20453;-92
2023/01/07 02:16:58;;;;;;;84.60;38.85;;;8.00;99.90;;;;;;6115663;23;20013;-91
2023/01/07 02:19:57;;;;;;;83.35;37.17;;;8.00;99.90;;;;;;6125599;23;20010;-91
2023/01/07 02:22:43;;;;;;;80.22;34.50;;;8.00;99.90;;;;;;6104275;23;20034;-90
2023/01/07 02:25:30;;;;;;;82.80;35.45;;;8.10;99.90;;;;;;6102412;23;20440;-91
2023/01/07 02:28:27;;;;;;;88.45;35.20;;;8.40;99.90;;;;;;6101936;23;20017;-92
2023/01/07 02:31:12;;;;;;;85.13;33.58;;;8.50;99.90;;;;;;6077666;23;20014;-95
2023/01/07 02:34:08;;;;;;;98.57;37.80;;;8.60;99.90;;;;;;6102108;23;20089;-93
2023/01/07 02:36:43;;;;;;;98.85;38.08;;;8.70;99.90;;;;;;6101676;23;20100;-91
2023/01/07 02:39:47;;;;;;;93.72;34.65;;;8.70;99.90;;;;;;6100566;23;20012;-93
2023/01/07 02:42:28;;;;;;;98.63;35.67;;;8.70;99.90;;;;;;6185781;23;20005;-91
2023/01/07 02:45:15;;;;;;;87.45;35.22;;;8.60;99.90;;;;;;6194478;23;20016;-90
2023/01/07 02:48:05;;;;;;;89.75;35.95;;;8.70;99.90;;;;;;6188965;23;20021;-94
2023/01/07 02:50:34;;;;;;;94.78;34.92;;;8.60;99.90;;;;;;6186653;23;20013;-94
2023/01/07 02:53:00;;;;;;;104.50;36.47;;;8.60;99.90;;;;;;6212961;22;20003;-91
2023/01/07 02:55:46;;;;;;;93.75;37.05;;;8.60;99.90;;;;;;6253743;22;20345;-92
2023/01/07 02:58:47;;;;;;;127.05;42.33;;;8.50;99.90;;;;;;6278981;22;20011;-91
2023/01/07 03:01:41;;;;;;;127.40;37.35;;;8.40;99.90;;;;;;6253947;22;20007;-92
2023/01/07 03:04:12;;;;;;;111.07;34.00;;;8.10;99.90;;;;;;6254625;22;20437;-91
2023/01/07 03:07:33;;;;;;;120.47;33.53;;;7.80;99.90;;;;;;6280917;22;20019;-91
2023/01/07 03:10:42;;;;;;;94.18;31.20;;;7.70;99.90;;;;;;6169787;23;20004;-94
2023/01/07 03:13:17;;;;;;;100.88;35.88;;;7.60;99.90;;;;;;6079582;23;20045;-95
2023/01/07 03:16:04;;;;;;;86.82;32.08;;;7.60;99.90;;;;;;6103001;23;20097;-93
2023/01/07 03:18:54;;;;;;;70.95;30.30;;;7.50;99.90;;;;;;6103208;23;20017;-92
2023/01/07 03:21:27;;;;;;;70.93;30.10;;;7.50;99.90;;;;;;6079102;23;20013;-92
2023/01/07 03:23:58;;;;;;;78.00;31.02;;;7.50;99.90;;;;;;6103169;23;20070;-93
2023/01/07 03:26:31;;;;;;;75.38;31.30;;;7.40;99.90;;;;;;6103228;23;20025;-92
2023/01/07 03:29:02;;;;;;;71.50;31.85;;;7.40;99.90;;;;;;6098599;23;20017;-92
2023/01/07 03:31:31;;;;;;;60.47;28.92;;;7.40;99.90;;;;;;6098479;23;20010;-94
2023/01/07 03:34:04;;;;;;;59.47;28.73;;;7.40;99.90;;;;;;6098268;23;20449;-94
2023/01/07 03:36:38;;;;;;;72.53;31.80;;;7.40;99.90;;;;;;6050766;23;20190;-91
2023/01/07 03:39:09;;;;;;;79.32;33.50;;;7.40;99.90;;;;;;6098541;23;20089;-93
2023/01/07 03:44:26;;;;;;;69.43;31.58;;;7.40;99.90;;;;;;6094575;23;20109;-91
2023/01/07 03:46:53;;;;;;;69.88;30.55;;;7.40;99.90;;;;;;6079194;23;20042;-90
2023/01/07 03:49:20;;;;;;;72.18;31.40;;;7.40;99.90;;;;;;6115902;23;20012;-92
2023/01/07 03:51:48;;;;;;;65.32;30.02;;;7.40;99.90;;;;;;6197376;23;20086;-93
2023/01/07 03:54:16;;;;;;;75.47;34.28;;;7.40;99.90;;;;;;6199552;23;20087;-92
2023/01/07 03:56:45;;;;;;;93.45;40.35;;;7.40;99.90;;;;;;6223997;23;20028;-90
2023/01/07 03:59:15;;;;;;;98.85;41.80;;;7.40;99.90;;;;;;6207075;23;20460;-92
2023/01/07 04:01:43;;;;;;;122.25;47.47;;;7.50;99.90;;;;;;6196900;23;20461;-92
2023/01/07 04:04:10;;;;;;;258.02;72.97;;;7.50;99.90;;;;;;6196779;23;20027;-92
2023/01/07 04:06:37;;;;;;;367.38;86.05;;;7.60;99.90;;;;;;6229462;22;20098;-92
2023/01/07 04:09:22;;;;;;;421.17;80.05;;;7.70;99.90;;;;;;6280951;22;20337;-91
2023/01/07 04:11:49;;;;;;;628.63;89.75;;;7.80;99.90;;;;;;6253397;22;20014;-92
2023/01/07 04:14:16;;;;;;;452.52;70.88;;;7.80;99.90;;;;;;6278547;22;20004;-92
2023/01/07 04:16:42;;;;;;;297.92;60.75;;;7.90;99.90;;;;;;6253994;22;20020;-91
2023/01/07 04:19:12;;;;;;;140.55;40.53;;;7.90;99.90;;;;;;6247223;22;20016;-92
2023/01/07 04:21:38;;;;;;;228.10;43.28;;;7.90;99.90;;;;;;6304006;22;20008;-92
2023/01/07 04:24:06;;;;;;;144.52;37.78;;;7.90;99.90;;;;;;6254239;22;20100;-92
2023/01/07 04:26:33;;;;;;;235.65;41.95;;;7.90;99.90;;;;;;6226368;23;20020;-91
2023/01/07 04:29:03;;;;;;;201.43;42.70;;;7.80;99.90;;;;;;6217427;22;20139;-92
2023/01/07 04:31:30;;;;;;;159.75;39.03;;;7.80;99.90;;;;;;6216123;23;20091;-92
2023/01/07 04:34:00;;;;;;;105.53;36.60;;;7.80;99.90;;;;;;6216325;23;20005;-91
2023/01/07 04:36:28;;;;;;;121.85;37.33;;;7.90;99.90;;;;;;6216183;22;20063;-92
2023/01/07 04:38:56;;;;;;;91.35;33.97;;;7.80;99.90;;;;;;6216411;22;20055;-93
2023/01/07 04:41:23;;;;;;;100.13;34.33;;;7.80;99.90;;;;;;6216183;22;20012;-94
2023/01/07 04:43:50;;;;;;;92.75;34.17;;;7.80;99.90;;;;;;6216397;22;20000;-91
2023/01/07 04:46:17;;;;;;;96.70;33.67;;;7.80;99.90;;;;;;6215818;23;20027;-92
2023/01/07 04:48:44;;;;;;;134.63;38.80;;;7.80;99.90;;;;;;6216551;22;20017;-92
2023/01/07 04:51:11;;;;;;;109.68;37.63;;;7.80;99.90;;;;;;6192752;23;20354;-93
2023/01/07 04:53:43;;;;;;;112.50;35.67;;;7.90;99.90;;;;;;6193487;23;20024;-92
2023/01/07 04:56:12;;;;;;;115.38;35.17;;;7.90;99.90;;;;;;6168673;23;20048;-93
2023/01/07 04:58:42;;;;;;;157.70;40.30;;;8.00;99.90;;;;;;6170259;23;20000;-92
2023/01/07 05:01:10;;;;;;;184.85;41.75;;;8.00;99.90;;;;;;6191586;23;20103;-89
2023/01/07 05:03:38;;;;;;;118.18;35.30;;;8.10;99.90;;;;;;6194268;22;20008;-91
2023/01/07 05:06:09;;;;;;;119.22;36.13;;;8.10;99.90;;;;;;6278886;22;20018;-92
2023/01/07 05:08:37;;;;;;;120.45;36.05;;;8.10;99.90;;;;;;6281789;22;20007;-90
2023/01/07 05:11:08;;;;;;;133.65;37.63;;;8.20;99.90;;;;;;6254458;22;20000;-92
2023/01/07 05:13:40;;;;;;;113.20;36.60;;;8.30;99.90;;;;;;6277162;22;20020;-90
2023/01/07 05:16:07;;;;;;;120.70;37.10;;;8.30;99.90;;;;;;6252266;22;20016;-91
2023/01/07 05:18:34;;;;;;;95.57;33.10;;;8.40;99.90;;;;;;6252306;22;20079;-90
2023/01/07 05:21:02;;;;;;;108.53;34.13;;;8.40;99.90;;;;;;6278144;22;20004;-94
2023/01/07 05:23:29;;;;;;;111.18;34.65;;;8.50;99.90;;;;;;6252598;22;20003;-91
2023/01/07 05:25:58;;;;;;;102.18;34.95;;;8.50;99.90;;;;;;6283477;22;20034;-92
2023/01/07 05:28:29;;;;;;;109.07;36.38;;;8.50;99.90;;;;;;6259364;22;20014;-94
2023/01/07 05:30:59;;;;;;;103.20;34.22;;;8.50;99.90;;;;;;6283734;22;19991;-93
2023/01/07 05:33:27;;;;;;;111.63;33.58;;;8.50;99.90;;;;;;6272486;22;20012;-92
2023/01/07 05:36:05;;;;;;;116.50;36.35;;;8.50;99.90;;;;;;6263822;22;20004;-92
2023/01/07 05:38:48;;;;;;;101.18;36.42;;;8.50;99.90;;;;;;6260908;22;20007;-93
2023/01/07 05:41:37;;;;;;;123.57;37.28;;;8.40;99.90;;;;;;6263668;22;20380;-91
2023/01/07 05:44:06;;;;;;;119.25;34.95;;;8.50;99.90;;;;;;6311116;22;20413;-91
2023/01/07 05:46:32;;;;;;;138.15;39.28;;;8.40;99.90;;;;;;6251316;22;20472;-91
2023/01/07 05:48:59;;;;;;;138.25;39.90;;;8.50;99.90;;;;;;6250778;22;20087;-91
2023/01/07 05:54:38;;;;;;;126.07;37.90;;;8.80;99.90;;;;;;6192068;23;20541;-91
2023/01/07 05:57:11;;;;;;;130.15;38.60;;;9.00;99.90;;;;;;6171562;23;20367;-92
2023/01/07 05:59:37;;;;;;;132.32;40.42;;;9.20;99.90;;;;;;6217724;23;20009;-91
2023/01/07 06:02:11;;;;;;;183.68;41.83;;;9.30;99.90;;;;;;6198735;23;20099;-92
2023/01/07 06:05:14;;;;;;;211.43;43.50;;;9.40;99.90;;;;;;6209272;23;19992;-92
2023/01/07 06:10:17;;;;;;;381.17;45.85;;;9.60;99.90;;;;;;6260679;22;20024;-93
2023/01/07 06:13:19;;;;;;;371.08;43.95;;;9.60;99.90;;;;;;6249264;23;20019;-94
2023/01/07 06:16:36;;;;;;;;;;;;;;;;;;;;;
2023/01/07 06:19:56;;;;;;;;;;;;;;;;;;;;;
2023/01/07 06:23:42;;;;;;;;;;;;;;;;;;;;;
2023/01/07 07:31:09;;;;;;;211.90;43.58;;;10.40;99.90;;;;;;6299156;22;20022;-93
2023/01/07 07:33:57;;;;;;;220.70;41.00;;;10.30;99.90;;;;;;6269045;22;19996;-93
2023/01/07 07:45:03;;;;;;;209.55;40.97;;;10.40;99.90;;;;;;6333359;22;20005;-92
2023/01/07 07:47:36;;;;;;;157.02;39.03;;;10.60;99.90;;;;;;6276577;22;20026;-92
2023/01/07 07:50:19;;;;;;;94.57;33.07;;;10.70;99.90;;;;;;6206972;23;20498;-93
2023/01/07 07:53:31;;;;;;;232.43;39.25;;;10.80;99.90;;;;;;6194269;23;20096;-91
2023/01/07 07:56:08;;;;;;;198.52;36.90;;;11.20;99.90;;;;;;6200627;23;19992;-93
2023/01/07 07:58:47;;;;;;;147.52;32.47;;;11.50;99.90;;;;;;6216744;23;20063;-92
2023/01/07 08:01:17;;;;;;;184.18;33.95;;;11.60;99.90;;;;;;6196628;23;20056;-94
2023/01/07 08:03:44;;;;;;;179.77;32.90;;;11.80;99.90;;;;;;6173380;23;20017;-91
2023/01/07 08:06:12;;;;;;;164.75;36.20;;;11.80;99.90;;;;;;6151343;23;20013;-91
2023/01/07 08:08:40;;;;;;;183.40;35.25;;;11.80;99.90;;;;;;6173354;23;20005;-92
2023/01/07 08:11:09;;;;;;;199.90;40.30;;;11.90;99.90;;;;;;6140167;23;20005;-92
2023/01/07 08:13:36;;;;;;;238.90;40.17;;;12.00;99.90;;;;;;6140110;23;20083;-93
2023/01/07 08:16:03;;;;;;;192.15;38.88;;;12.00;99.90;;;;;;6167608;23;20027;-92
2023/01/07 08:18:33;;;;;;;96.13;33.88;;;12.20;99.90;;;;;;6148783;23;20005;-93
2023/01/07 08:21:00;;;;;;;128.60;37.95;;;12.10;99.90;;;;;;6198121;23;20010;-91
2023/01/07 08:23:27;;;;;;;109.20;36.15;;;12.40;99.90;;;;;;6250736;23;20008;-92
2023/01/07 08:25:59;;;;;;;140.48;41.80;;;12.50;99.90;;;;;;6249519;23;20335;-91
2023/01/07 08:28:33;;;;;;;146.32;41.78;;;12.50;99.90;;;;;;6247966;23;20095;-91
2023/01/07 08:31:02;;;;;;;;;;;12.50;99.90;;;;;;6248165;22;20012;-91
2023/01/07 08:33:30;;;;;;;142.23;42.05;;;12.50;99.90;;;;;;6248235;23;19900;-91
2023/01/07 08:35:56;;;;;;;121.75;41.25;;;12.60;99.90;;;;;;6249084;23;20486;-91
2023/01/07 08:38:24;;;;;;;110.38;39.83;;;12.70;99.90;;;;;;6261444;22;20007;-92
2023/01/07 08:40:51;;;;;;;117.35;41.15;;;12.80;99.90;;;;;;6257798;22;20019;-90
2023/01/07 08:43:22;;;;;;;97.85;40.20;;;12.90;99.90;;;;;;6235918;23;20016;-92
2023/01/07 08:45:50;;;;;;;104.88;42.47;;;12.90;99.90;;;;;;6221660;23;20008;-91
2023/01/07 08:48:18;;;;;;;98.68;41.60;;;13.00;99.90;;;;;;6246455;23;20035;-93
2023/01/07 08:50:53;;;;;;;85.20;40.03;;;13.10;99.90;;;;;;6246801;23;20008;-91
2023/01/07 08:53:21;;;;;;;78.78;38.28;;;13.20;99.90;;;;;;6247375;23;20087;-93
2023/01/07 08:55:48;;;;;;;78.75;37.10;;;13.30;99.90;;;;;;6249610;23;20004;-93
2023/01/07 08:58:16;;;;;;;72.07;37.40;;;13.30;99.90;;;;;;6248413;23;20389;-92
2023/01/07 09:00:46;;;;;;;67.40;34.88;;;13.40;99.90;;;;;;6246673;23;20012;-92
2023/01/07 09:03:13;;;;;;;59.33;32.75;;;13.60;99.90;;;;;;6246874;23;20004;-91
2023/01/07 09:05:42;;;;;;;57.08;31.60;;;13.70;99.90;;;;;;6256008;23;20011;-92
2023/01/07 09:08:09;;;;;;;53.25;30.50;;;13.80;99.90;;;;;;6259952;23;20042;-91
2023/01/07 09:10:36;;;;;;;49.33;29.33;;;13.90;99.90;;;;;;6259615;23;20004;-92
2023/01/07 09:13:02;;;;;;;41.00;25.85;;;14.00;99.90;;;;;;6251963;22;20011;-92
2023/01/07 09:15:29;;;;;;;33.95;22.35;;;14.10;99.90;;;;;;6251854;23;20027;-92
2023/01/07 09:17:55;;;;;;;37.72;24.08;;;14.20;99.90;;;;;;6255445;23;20079;-92
2023/01/07 09:20:25;;;;;;;31.95;21.48;;;14.30;99.90;;;;;;6266175;22;20008;-92
2023/01/07 09:22:55;;;;;;;29.90;23.00;;;14.30;99.90;;;;;;6285642;22;20008;-93
2023/01/07 09:25:24;;;;;;;28.67;23.95;;;14.30;99.90;;;;;;6269514;22;20008;-92
2023/01/07 09:28:01;;;;;;;32.13;21.85;;;14.30;99.90;;;;;;6259771;22;20015;-91
2023/01/07 09:33:47;;;;;;;;;;;14.40;99.90;;;;;;6286354;22;19992;-93
2023/01/07 09:36:14;;;;;;;30.48;23.27;;;14.50;99.90;;;;;;6261919;22;19907;-93
2023/01/07 09:38:40;;;;;;;23.52;19.88;;;14.50;99.90;;;;;;6258277;22;20082;-91
2023/01/07 09:41:38;;;;;;;24.48;20.00;;;14.70;99.90;;;;;;6252696;22;20010;-93
2023/01/07 09:44:43;;;;;;;27.73;21.35;;;14.70;99.90;;;;;;6258861;22;20015;-91
2023/01/07 09:47:13;;;;;;;24.38;20.63;;;14.70;99.90;;;;;;6281247;22;20437;-91
2023/01/07 09:49:41;;;;;;;24.95;21.08;;;14.70;99.90;;;;;;6256065;22;20086;-92
2023/01/07 09:52:16;;;;;;;25.35;22.65;;;14.80;99.90;;;;;;6255139;22;20003;-92
2023/01/07 09:54:47;;;;;;;30.40;22.30;;;14.90;99.90;;;;;;6259471;22;20010;-94
2023/01/07 09:57:16;;;;;;;31.08;24.58;;;15.10;99.90;;;;;;6256921;22;20497;-91
2023/01/07 09:59:44;;;;;;;27.98;24.00;;;15.00;99.90;;;;;;6253750;22;20501;-92
2023/01/07 10:02:27;;;;;;;31.98;23.45;;;14.90;99.90;;;;;;6279679;22;20510;-91
2023/01/07 10:05:30;;;;;;;30.35;22.27;;;15.10;99.90;;;;;;6257615;22;20066;-91
2023/01/07 10:08:14;;;;;;;25.52;21.50;;;15.20;99.90;;;;;;6255805;22;20094;-92
2023/01/07 10:11:05;;;;;;;25.00;20.55;;;15.20;99.90;;;;;;6254879;22;20358;-90
2023/01/07 10:13:37;;;;;;;20.67;18.27;;;15.20;99.90;;;;;;6276464;22;20035;-93
2023/01/07 10:16:14;;;;;;;22.35;17.80;;;15.50;99.90;;;;;;6276979;22;20031;-91
2023/01/07 10:19:08;;;;;;;18.92;17.15;;;15.80;99.90;;;;;;6250952;22;20012;-92
2023/01/07 10:22:01;;;;;;;19.90;17.87;;;15.80;99.90;;;;;;6251223;22;20004;-90
2023/01/07 10:24:39;;;;;;;20.00;17.95;;;15.40;99.90;;;;;;6235420;22;20238;-91
2023/01/07 15:48:06;;;;;;;32.50;21.63;;;13.00;99.90;;;;;;6276281;22;20030;-92
2023/01/07 15:50:36;;;;;;;35.95;22.55;;;13.00;99.90;;;;;;6259837;22;20438;-88
2023/01/07 15:53:11;;;;;;;29.08;22.05;;;13.00;99.90;;;;;;6257688;22;20004;-88
2023/01/07 15:55:48;;;;;;;28.02;22.10;;;12.80;99.90;;;;;;6282699;22;20003;-89
2023/01/07 15:58:44;;;;;;;32.55;23.00;;;12.80;99.90;;;;;;6267277;22;20011;-89
2023/01/07 16:01:15;;;;;;;33.92;23.40;;;12.70;99.90;;;;;;6263828;22;20011;-87
2023/01/07 16:03:43;;;;;;;37.22;25.05;;;12.70;99.90;;;;;;6259218;22;20007;-88
2023/01/07 16:06:32;;;;;;;40.45;25.08;;;12.70;99.90;;;;;;6259024;22;20455;-89
2023/01/07 16:09:03;;;;;;;35.90;25.40;;;12.60;99.90;;;;;;6257377;22;20318;-90
2023/01/07 16:11:30;;;;;;;42.97;26.63;;;12.70;99.90;;;;;;6257895;22;20026;-92
2023/01/07 16:14:02;;;;;;;38.58;26.50;;;12.60;99.90;;;;;;6257981;22;20010;-90
2023/01/07 16:16:30;;;;;;;53.90;32.97;;;12.60;99.90;;;;;;6257543;22;20082;-90
2023/01/07 16:19:02;;;;;;;59.92;35.63;;;12.50;99.90;;;;;;6256922;22;20014;-90
2023/01/07 16:21:36;;;;;;;156.52;80.60;;;12.40;99.90;;;;;;6257278;22;20482;-91
2023/01/07 16:24:03;;;;;;;;;;;12.40;99.90;;;;;;6257291;22;20007;-91
2023/01/07 16:26:43;;;;;;;53.88;34.40;;;12.40;99.90;;;;;;6257916;22;19914;-91
2023/01/07 16:29:34;;;;;;;68.47;39.63;;;12.40;99.90;;;;;;6257178;22;20433;-90
2023/01/07 16:32:04;;;;;;;49.90;33.60;;;12.30;99.90;;;;;;6257200;22;20578;-90
2023/01/07 16:34:30;;;;;;;52.88;35.17;;;12.30;99.90;;;;;;6257579;22;20090;-90
2023/01/07 16:36:59;;;;;;;51.78;32.67;;;12.30;99.90;;;;;;6257636;22;20007;-91
2023/01/07 16:39:42;;;;;;;54.45;33.17;;;12.30;99.90;;;;;;6256756;22;20090;-89
2023/01/07 16:42:23;;;;;;;49.53;32.42;;;12.20;99.90;;;;;;6257256;22;20436;-87
2023/01/07 16:44:50;;;;;;;53.50;33.47;;;12.20;99.90;;;;;;6257002;22;20011;-89
2023/01/07 16:47:22;;;;;;;60.00;35.45;;;12.20;99.90;;;;;;6256951;22;20072;-90
2023/01/07 16:50:17;;;;;;;61.50;35.13;;;12.10;99.90;;;;;;6256607;22;20145;-88
2023/01/07 16:52:50;;;;;;;;;;;12.10;99.90;;;;;;6268464;22;20034;-88
2023/01/07 16:56:01;;;;;;;74.47;45.85;;;12.00;99.90;;;;;;6257446;22;19903;-90
2023/01/07 16:58:42;;;;;;;74.78;43.72;;;11.90;99.90;;;;;;6136021;23;20009;-90
2023/01/07 17:01:10;;;;;;;73.13;46.78;;;11.90;99.90;;;;;;6136391;23;20005;-90
2023/01/07 17:03:50;;;;;;;73.85;46.95;;;11.80;99.90;;;;;;6136484;23;20335;-89
2023/01/07 17:06:23;;;;;;;81.95;49.80;;;11.80;99.90;;;;;;6136086;23;20452;-89
2023/01/07 17:08:52;;;;;;;77.85;47.10;;;11.70;99.90;;;;;;6135603;23;20013;-91
2023/01/07 17:11:46;;;;;;;68.80;44.08;;;11.60;99.90;;;;;;6135823;23;20431;-90
2023/01/07 17:14:37;;;;;;;78.80;49.70;;;11.60;99.90;;;;;;6135075;23;20009;-91
2023/01/07 17:17:27;;;;;;;93.63;60.65;;;11.40;99.90;;;;;;6160896;23;20053;-88
2023/01/07 17:20:08;;;;;;;114.25;70.90;;;11.40;99.90;;;;;;6160991;23;20059;-89
2023/01/07 17:22:39;;;;;;;139.82;84.55;;;11.30;99.90;;;;;;6135740;23;20009;-91
2023/01/07 17:25:23;;;;;;;133.70;81.05;;;11.20;99.90;;;;;;6135670;23;20005;-89
2023/01/07 17:27:55;;;;;;;118.80;74.82;;;11.10;99.90;;;;;;6135548;23;20489;-89
2023/01/07 17:30:25;;;;;;;135.50;82.75;;;11.10;99.90;;;;;;6256653;22;20011;-88
2023/01/07 17:32:51;;;;;;;124.18;73.97;;;11.00;99.90;;;;;;6256934;22;20007;-89
2023/01/07 17:35:23;;;;;;;103.68;65.35;;;10.90;99.90;;;;;;6256988;22;20451;-91
2023/01/07 17:37:51;;;;;;;94.13;58.20;;;10.80;99.90;;;;;;6256965;22;20432;-90
2023/01/07 17:40:19;;;;;;;100.65;62.00;;;10.80;99.90;;;;;;6256936;22;20076;-91
2023/01/07 17:45:32;;;;;;;104.13;56.85;;;10.70;99.90;;;;;;6283174;22;20010;-91
2023/01/07 17:48:00;;;;;;;96.30;58.33;;;10.70;99.90;;;;;;6229027;23;20050;-91
2023/01/07 17:50:34;;;;;;;102.07;58.47;;;10.70;99.90;;;;;;6239838;23;20055;-90
2023/01/07 17:53:01;;;;;;;101.07;59.20;;;10.60;99.90;;;;;;6196249;23;20464;-89
2023/01/07 17:55:29;;;;;;;106.25;59.15;;;10.60;99.90;;;;;;6220842;23;20377;-92
2023/01/07 17:57:57;;;;;;;84.80;54.35;;;10.50;99.90;;;;;;6223995;23;20139;-90
2023/01/07 18:00:26;;;;;;;93.13;56.63;;;10.50;99.90;;;;;;6231728;23;20004;-91
2023/01/07 18:02:53;;;;;;;91.38;53.10;;;10.40;99.90;;;;;;6228272;23;20008;-90
2023/01/07 18:05:22;;;;;;;99.03;57.78;;;10.40;99.90;;;;;;6221761;23;20004;-89
2023/01/07 18:07:49;;;;;;;90.50;53.42;;;10.30;99.90;;;;;;6219530;23;20020;-90
2023/01/07 18:10:18;;;;;;;103.50;60.60;;;10.30;99.90;;;;;;6219906;23;20000;-90
2023/01/07 18:12:45;;;;;;;132.82;75.53;;;10.30;99.90;;;;;;6219925;23;20354;-88
2023/01/07 18:15:26;;;;;;;142.73;79.32;;;10.20;99.90;;;;;;6220293;23;20008;-93
2023/01/07 18:17:52;;;;;;;114.95;65.90;;;10.30;99.90;;;;;;6223380;22;20382;-89
2023/01/07 18:20:20;;;;;;;106.13;60.75;;;10.30;99.90;;;;;;6256036;22;20436;-89
2023/01/07 18:22:47;;;;;;;108.60;65.05;;;10.30;99.90;;;;;;6256111;22;20008;-88
2023/01/07 18:25:19;;;;;;;98.63;58.60;;;10.30;99.90;;;;;;6256057;22;20436;-89
2023/01/07 18:27:47;;;;;;;100.53;54.78;;;10.30;99.90;;;;;;6256063;22;20463;-90
2023/01/07 18:30:17;;;;;;;101.53;55.28;;;10.30;99.90;;;;;;6256277;22;20003;-92
2023/01/07 18:32:44;;;;;;;93.28;54.03;;;10.30;99.90;;;;;;6256442;22;20007;-90
2023/01/07 18:35:11;;;;;;;105.15;62.60;;;10.30;99.90;;;;;;6255884;22;20013;-89
2023/01/07 18:37:38;;;;;;;97.03;58.55;;;10.30;99.90;;;;;;6255810;22;20444;-89
2023/01/07 18:40:07;;;;;;;115.25;67.72;;;10.30;99.90;;;;;;6256289;22;20077;-89
2023/01/07 18:42:34;;;;;;;120.50;65.38;;;10.20;99.90;;;;;;6256302;22;20309;-91
2023/01/07 18:45:01;;;;;;;110.35;64.72;;;10.20;99.90;;;;;;6256116;22;20003;-91
2023/01/07 18:47:27;;;;;;;105.32;62.72;;;10.30;99.90;;;;;;6255276;22;20015;-89
2023/01/07 18:49:54;;;;;;;107.35;63.10;;;10.30;99.90;;;;;;6254858;22;20018;-93
2023/01/07 18:52:20;;;;;;;122.80;68.45;;;10.30;99.90;;;;;;6255758;22;20494;-91
2023/01/07 18:54:47;;;;;;;107.65;64.25;;;10.30;99.90;;;;;;6255973;22;20004;-89
2023/01/07 18:57:13;;;;;;;109.20;63.50;;;10.20;99.90;;;;;;6256435;22;20034;-90
2023/01/07 18:59:40;;;;;;;117.03;66.10;;;10.20;99.90;;;;;;6256257;22;20007;-91
2023/01/07 19:02:15;;;;;;;118.75;68.15;;;10.10;99.90;;;;;;6255792;22;20436;-89
2023/01/07 19:04:42;;;;;;;118.10;67.63;;;10.10;99.90;;;;;;6255891;22;20011;-91
2023/01/07 19:07:08;;;;;;;117.53;67.95;;;10.10;99.90;;;;;;6256414;22;20098;-88
2023/01/07 19:09:36;;;;;;;109.20;64.28;;;10.10;99.90;;;;;;6255950;22;20061;-91
2023/01/07 19:12:03;;;;;;;126.28;71.20;;;10.00;99.90;;;;;;6256215;22;20057;-89
2023/01/07 19:14:30;;;;;;;176.88;96.82;;;10.00;99.90;;;;;;6256155;22;20010;-90
2023/01/07 19:16:56;;;;;;;160.85;88.50;;;10.00;99.90;;;;;;6256602;22;20003;-90
2023/01/07 19:19:22;;;;;;;159.43;91.47;;;10.00;99.90;;;;;;6260117;22;20011;-91
2023/01/07 19:21:50;;;;;;;337.42;161.68;;;10.00;99.90;;;;;;6256238;22;20013;-90
2023/01/07 19:24:16;;;;;;;201.43;114.47;;;10.00;99.90;;;;;;6258676;22;20035;-90
2023/01/07 19:26:42;;;;;;;177.18;95.45;;;10.00;99.90;;;;;;6259625;22;20018;-90
2023/01/07 19:29:09;;;;;;;155.95;88.75;;;10.00;99.90;;;;;;6262715;22;20038;-91
2023/01/07 19:31:36;;;;;;;149.25;84.22;;;10.00;99.90;;;;;;6264255;22;20091;-89
2023/01/07 19:34:03;;;;;;;166.02;91.25;;;10.00;99.90;;;;;;6262651;22;20074;-89
2023/01/07 19:36:30;;;;;;;152.50;79.68;;;10.00;99.90;;;;;;6262357;22;20023;-90
2023/01/07 19:38:57;;;;;;;158.85;87.65;;;10.00;99.90;;;;;;6236229;23;20008;-92
2023/01/07 19:45:17;;;;;;;159.60;87.05;;;9.90;99.90;;;;;;6255000;23;20019;-93
2023/01/07 19:48:02;;;;;;;150.60;81.65;;;9.90;99.90;;;;;;6233898;23;20012;-94
2023/01/07 19:50:30;;;;;;;158.63;85.07;;;9.90;99.90;;;;;;6229582;23;20015;-93
2023/01/07 19:52:58;;;;;;;176.48;89.50;;;9.90;99.90;;;;;;6202304;23;20004;-91
2023/01/07 19:55:25;;;;;;;177.93;92.72;;;9.80;99.90;;;;;;6222870;23;20012;-92
2023/01/07 19:57:52;;;;;;;196.55;98.10;;;9.80;99.90;;;;;;6222039;23;20019;-91
2023/01/07 20:00:18;;;;;;;218.13;102.25;;;9.70;99.90;;;;;;6221892;23;20014;-90